Date,TemperatureHighF,TemperatureAvgF,TemperatureLowF,DewpointHighF,DewpointAvgF,DewpointLowF,HumidityHigh,HumidityAvg,HumidityLow,PressureMaxIn,PressureMinIn,WindSpeedMaxMPH,WindSpeedAvgMPH,GustSpeedMaxMPH,PrecipitationSumIn
2013-1-1,46,43,39,40,38,30,94,82,55,30.02,29.88,6,1,9,0.07
2013-1-2,42,37,32,37,32,26,95,80,61,30.21,29.98,8,2,12,0.01
2013-1-3,38,32,24,28,25,22,93,77,56,30.24,30.15,5,0,7,0.12
2013-1-4,46,32,22,30,25,20,95,77,41,30.23,30.10,11,1,14,0.01
2013-1-5,47,35,26,34,27,23,92,74,42,30.37,30.18,6,1,13,0.00
2013-1-6,52,41,33,38,34,30,93,78,50,30.23,30.03,7,2,9,0.02
2013-1-7,48,38,28,34,30,26,95,76,47,30.44,30.12,16,2,20,0.00
2013-1-8,53,40,26,40,33,24,95,79,50,30.46,30.37,6,1,11,0.00
2013-1-9,63,49,33,53,43,32,96,83,63,30.39,30.25,7,1,12,0.00
2013-1-10,55,44,34,43,34,27,95,71,35,30.56,30.36,9,2,14,0.00
2013-1-11,51,44,32,50,42,30,96,92,82,30.50,30.08,4,1,8,0.00
2013-1-12,51,49,45,50,48,45,97,96,93,30.16,30.08,4,1,8,0.00
2013-1-13,60,51,45,59,50,44,97,97,95,30.13,30.00,8,2,9,0.01
2013-1-14,64,57,46,61,55,43,96,91,87,30.22,30.00,14,4,14,0.85
2013-1-15,46,43,41,43,41,40,96,95,89,30.29,30.09,11,3,15,0.66
2013-1-16,46,42,38,45,40,37,96,95,94,30.10,29.88,11,3,12,0.33
2013-1-17,45,41,34,44,40,33,97,95,89,30.11,29.96,10,2,12,0.35
2013-1-18,39,34,26,33,28,19,97,81,45,30.52,30.04,10,3,17,0.32
2013-1-19,53,40,26,34,30,24,95,70,41,30.47,30.06,11,4,14,0.48
2013-1-20,60,48,34,39,33,30,87,59,38,30.05,29.85,16,4,18,0.00
2013-1-21,50,38,26,38,30,22,93,73,52,30.09,29.77,12,3,23,0.00
2013-1-22,35,28,21,23,8,-3,66,44,25,30.28,29.90,16,5,24,0.00
2013-1-23,30,23,12,15,7,2,86,53,31,30.36,30.12,10,2,16,0.00
2013-1-24,28,25,16,24,15,4,92,69,38,30.51,30.00,19,6,28,0.00
2013-1-25,28,25,15,23,17,7,91,75,43,30.47,30.07,8,2,17,0.00
2013-1-26,38,29,20,26,23,18,92,77,53,30.41,30.07,9,2,14,0.05
2013-1-27,38,31,26,25,23,21,90,75,52,30.60,30.42,8,1,14,0.00
2013-1-28,50,40,28,44,34,26,93,81,71,30.51,30.09,9,4,15,0.11
2013-1-29,69,54,45,54,48,42,94,79,58,30.13,30.02,7,2,9,0.00
2013-1-30,74,65,47,62,58,45,95,79,64,30.02,29.35,24,8,28,0.00
2013-1-31,69,48,37,62,28,18,88,48,32,29.95,29.18,18,7,36,0.36
2013-2-1,40,32,23,28,16,5,81,52,32,30.37,29.77,20,6,30,0.00
2013-2-2,36,31,19,23,14,8,74,50,34,30.38,29.99,12,3,14,0.00
2013-2-3,38,34,27,30,27,23,92,76,58,29.99,29.82,7,2,14,0.00
2013-2-4,42,35,28,27,21,14,80,58,46,30.12,29.92,10,2,15,0.00
2013-2-5,53,45,35,37,32,27,90,63,51,29.92,29.82,9,2,16,0.00
2013-2-6,50,37,28,36,31,26,95,79,54,30.34,29.91,8,1,14,0.00
2013-2-7,43,36,26,39,31,25,93,80,61,30.42,30.14,10,1,13,0.03
2013-2-8,46,42,40,43,39,27,95,89,59,30.14,29.66,18,6,26,1.22
2013-2-9,43,36,26,27,23,21,85,60,44,30.37,29.89,23,8,32,0.00
2013-2-10,45,33,20,36,24,5,93,71,22,30.49,30.28,7,1,11,0.00
2013-2-11,61,54,42,57,50,36,94,86,74,30.27,29.77,14,5,18,0.01
2013-2-12,57,49,40,48,36,27,91,65,34,29.99,29.79,12,1,17,0.00
2013-2-13,47,43,40,44,40,38,95,89,81,29.93,29.59,9,2,11,0.11
2013-2-14,50,40,32,37,33,30,94,79,50,30.05,29.73,8,2,14,0.00
2013-2-15,60,44,29,40,34,28,96,72,39,30.05,29.90,10,3,15,0.00
2013-2-16,43,38,34,36,34,26,93,86,72,29.99,29.78,12,5,17,0.14
2013-2-17,34,31,27,26,14,6,74,51,33,30.21,29.78,24,8,26,0.00
2013-2-18,44,31,18,26,14,8,82,53,26,30.39,30.21,11,3,14,0.00
2013-2-19,53,45,36,49,37,22,94,75,51,30.22,29.76,11,4,19,0.02
2013-2-20,45,38,30,39,24,16,93,62,36,30.13,29.84,12,3,18,0.00
2013-2-21,41,33,24,22,17,14,71,53,41,30.29,30.12,15,5,23,0.00
2013-2-22,39,35,31,35,27,20,94,75,60,30.36,30.18,8,2,11,0.10
2013-2-23,44,41,37,43,40,35,97,96,94,30.18,29.79,7,3,12,0.21
2013-2-24,54,46,36,43,39,23,97,78,56,30.09,29.76,15,4,20,0.01
2013-2-25,44,36,27,31,25,21,93,68,47,30.21,30.09,12,2,12,0.00
2013-2-26,56,41,27,54,39,26,96,92,86,30.20,29.53,15,3,23,0.34
2013-2-27,58,50,36,52,44,35,97,84,54,29.69,29.50,13,2,17,0.12
2013-2-28,46,42,36,39,36,31,95,80,56,29.73,29.61,11,2,17,0.02
2013-3-1,47,42,40,33,30,27,74,62,46,29.86,29.73,14,4,20,0.01
2013-3-2,40,37,31,28,25,19,74,62,52,29.87,29.80,11,4,16,0.01
2013-3-3,42,35,30,26,22,19,71,58,43,29.90,29.77,13,5,23,0.25
2013-3-4,46,35,27,27,20,17,83,56,34,30.03,29.90,16,4,25,0.02
2013-3-5,48,37,26,35,26,20,92,67,36,30.08,29.76,9,2,13,0.20
2013-3-6,45,40,37,43,38,34,94,91,78,29.89,29.30,26,12,49,1.50
2013-3-7,50,44,39,35,30,27,82,59,43,30.11,29.89,23,10,28,0.39
2013-3-8,48,43,37,31,29,27,74,60,46,30.20,30.07,21,8,30,0.06
2013-3-9,58,45,32,34,28,19,89,56,22,30.30,30.19,12,4,15,0.01
2013-3-10,58,43,28,42,31,20,94,68,23,30.32,30.25,7,2,11,0.03
2013-3-11,64,50,34,52,44,33,97,82,65,30.27,29.99,13,4,18,0.00
2013-3-12,65,57,46,61,52,37,95,83,65,29.99,29.71,13,6,21,0.36
2013-3-13,52,43,30,37,32,21,94,66,41,30.04,29.89,14,4,26,0.00
2013-3-14,49,39,30,27,20,16,81,49,27,30.14,30.01,18,6,24,0.00
2013-3-15,58,42,24,36,27,20,93,61,26,30.11,29.80,9,2,21,0.00
2013-3-16,61,51,41,55,45,36,94,80,54,29.86,29.60,11,3,18,0.30
2013-3-17,44,39,36,40,36,34,95,91,85,30.26,29.87,13,2,14,0.25
2013-3-18,43,38,33,42,37,32,96,95,93,30.28,29.85,5,1,13,0.72
2013-3-19,61,47,38,43,35,13,96,71,22,29.92,29.72,12,4,19,0.02
2013-3-20,55,46,29,29,20,12,88,39,20,30.02,29.76,12,4,21,0.00
2013-3-21,43,37,32,30,21,12,73,54,37,29.91,29.70,19,8,23,0.00
2013-3-22,32,32,32,12,12,12,44,44,44,29.91,29.91,5,5,12,0.00
2013-3-24,42,36,30,33,30,25,95,79,52,29.98,29.61,8,2,14,0.03
2013-3-25,40,36,34,36,34,32,95,92,85,29.69,29.48,13,4,21,0.54
2013-3-26,48,41,34,36,33,28,95,74,47,29.98,29.69,14,4,18,0.00
2013-3-27,51,44,37,31,29,25,74,57,38,30.12,29.98,20,5,29,0.00
2013-3-28,51,44,35,32,29,26,80,56,43,30.21,30.09,17,5,28,0.00
2013-3-29,56,45,36,37,32,28,88,62,37,30.25,30.14,12,3,23,0.00
2013-3-30,60,46,30,39,31,26,95,63,28,30.21,30.11,11,2,19,0.00
2013-3-31,58,51,40,55,45,36,96,82,59,30.13,29.74,10,2,18,0.21
2013-4-1,69,55,41,51,42,31,97,66,36,29.96,29.70,18,4,31,0.00
2013-4-2,55,43,29,34,26,15,92,57,21,30.16,29.96,16,3,21,0.00
2013-4-3,56,42,27,35,23,15,93,56,22,30.35,30.16,14,3,20,0.00
2013-4-4,48,44,40,38,27,10,92,54,22,30.39,30.10,10,3,17,0.19
2013-4-5,63,48,39,44,38,30,95,75,29,30.05,29.82,13,5,18,0.46
2013-4-6,54,44,34,37,31,25,95,64,34,30.32,30.00,11,2,17,0.00
2013-4-7,70,54,36,46,41,34,95,65,39,30.32,30.02,11,4,22,0.01
2013-4-8,80,67,54,56,52,44,85,60,37,30.09,29.96,12,4,16,0.00
2013-4-9,85,72,63,60,56,53,80,59,34,30.08,29.95,10,3,13,0.00
2013-4-10,90,78,64,62,59,55,78,54,31,29.98,29.80,12,4,17,0.00
2013-4-11,86,75,64,63,60,58,83,62,42,29.88,29.74,16,4,18,0.00
2013-4-12,82,71,64,69,65,59,95,81,58,29.77,29.53,13,5,23,0.09
2013-4-13,65,58,49,63,47,42,94,69,49,29.93,29.62,16,4,27,0.01
2013-4-14,68,57,44,52,45,37,96,67,35,30.12,29.92,8,1,13,0.00
2013-4-15,62,58,56,53,50,41,85,74,58,30.27,30.10,14,3,14,0.00
2013-4-16,72,62,51,59,55,49,96,79,63,30.30,30.18,14,3,17,0.00
2013-4-17,79,68,59,64,60,56,92,78,58,30.20,30.11,9,3,15,0.00
2013-4-18,77,67,59,64,60,56,94,79,58,30.21,30.03,12,4,18,0.09
2013-4-19,83,71,62,67,64,59,93,79,54,30.03,29.66,23,6,29,0.37
2013-4-20,66,54,46,64,44,32,94,72,35,30.28,29.73,12,3,24,0.41
2013-4-21,54,46,38,44,35,28,95,69,39,30.56,30.29,11,2,21,0.00
2013-4-22,55,47,34,46,41,33,96,82,65,30.54,30.33,12,3,20,0.00
2013-4-23,60,51,43,49,46,41,94,83,65,30.33,30.11,12,5,19,0.00
2013-4-24,76,60,40,59,50,38,96,73,47,30.13,29.86,18,4,22,0.00
2013-4-25,68,56,43,57,40,27,90,56,28,30.28,29.93,16,5,26,0.00
2013-4-26,67,53,39,49,40,33,96,66,31,30.43,30.27,10,2,13,0.00
2013-4-27,68,56,43,48,42,35,95,64,30,30.41,30.29,8,1,16,0.00
2013-4-28,68,56,41,53,44,32,95,69,28,30.30,30.15,9,2,16,0.01
2013-4-29,59,57,54,57,56,53,97,95,93,30.15,30.00,7,2,17,1.26
2013-4-30,59,57,56,57,56,55,97,95,94,30.21,30.04,8,2,13,0.10
2013-5-1,67,59,54,55,50,43,94,75,46,30.38,30.21,9,3,14,0.00
2013-5-2,66,57,48,53,51,46,93,80,60,30.40,30.30,8,2,14,0.00
2013-5-3,62,54,45,51,46,40,97,76,45,30.34,30.26,12,2,21,0.00
2013-5-4,64,54,45,53,47,40,94,78,56,30.29,30.16,8,2,14,0.00
2013-5-5,62,55,47,53,49,43,93,81,66,30.19,30.12,11,3,16,0.00
2013-5-6,68,60,54,62,57,51,95,90,81,30.13,30.00,10,2,16,0.00
2013-5-7,69,63,58,64,60,57,96,90,77,30.00,29.86,11,3,16,0.87
2013-5-8,70,60,52,60,56,50,97,87,60,29.99,29.92,8,1,16,0.51
2013-5-9,77,64,56,65,58,54,97,83,53,30.00,29.91,9,1,13,0.30
2013-5-10,85,71,55,64,59,54,97,71,43,30.01,29.87,9,2,14,0.00
2013-5-11,82,73,66,67,64,61,90,73,52,29.89,29.71,14,3,22,0.00
2013-5-12,68,62,46,62,53,42,96,75,44,30.02,29.71,12,3,19,0.22
2013-5-13,62,52,39,46,38,30,95,64,31,30.14,30.00,12,3,18,0.00
2013-5-14,66,52,37,50,39,31,93,63,31,30.21,30.06,12,2,14,0.00
2013-5-15,85,71,59,64,55,45,69,57,47,30.07,29.72,12,4,19,0.00
2013-5-16,88,76,67,68,62,57,86,65,38,29.90,29.76,9,2,19,0.04
2013-5-17,81,70,62,64,56,44,96,66,30,30.13,29.90,9,2,11,0.00
2013-5-18,65,64,61,63,59,54,93,85,68,30.20,30.13,9,1,11,0.04
2013-5-19,78,70,64,70,66,63,96,86,71,30.17,30.07,11,2,13,0.00
2013-5-20,81,73,67,71,68,65,94,84,68,30.11,29.98,12,3,16,0.00
2013-5-21,82,74,69,71,69,67,93,83,67,30.01,29.89,7,3,13,0.00
2013-5-22,84,76,71,72,69,68,91,79,62,29.96,29.85,13,6,18,0.00
2013-5-23,78,73,68,72,68,66,94,86,74,29.92,29.75,14,5,20,0.23
2013-5-24,70,61,52,67,55,38,96,81,56,30.11,29.73,16,6,29,0.19
2013-5-25,67,55,46,46,39,35,83,57,34,30.18,30.07,17,7,23,0.00
2013-5-26,73,60,51,51,42,36,92,53,27,30.22,30.12,10,3,19,0.00
2013-5-27,76,63,45,59,52,43,96,71,37,30.26,30.16,6,1,14,0.00
2013-5-28,84,73,61,68,63,55,92,70,57,30.20,30.06,13,4,22,0.00
2013-5-29,88,79,70,70,66,64,82,67,50,30.14,30.06,12,4,16,0.00
2013-5-30,89,78,70,70,67,64,89,71,48,30.20,30.11,8,3,14,0.00
2013-5-31,89,78,65,71,68,63,92,73,49,30.17,30.04,11,2,18,0.00
2013-6-1,90,81,72,73,69,67,88,69,49,30.07,29.94,9,4,18,0.00
2013-6-2,88,79,70,72,68,66,91,71,54,29.96,29.85,13,5,28,0.02
2013-6-3,78,73,69,73,70,67,96,91,81,29.90,29.79,7,2,12,0.04
2013-6-4,77,69,56,69,57,47,96,69,35,30.11,29.91,10,3,16,0.10
2013-6-5,77,65,53,62,54,51,96,71,41,30.15,30.06,9,1,14,0.04
2013-6-6,75,67,56,67,62,53,96,82,67,30.07,29.86,18,3,18,0.02
2013-6-7,73,71,70,72,69,67,97,94,86,29.85,29.47,8,3,13,2.87
2013-6-8,78,69,64,71,67,62,97,91,66,30.07,29.69,12,1,21,0.62
2013-6-9,81,72,60,72,66,59,97,85,59,30.16,30.07,9,2,14,0.00
2013-6-10,83,76,73,75,73,72,96,90,74,30.08,29.84,12,5,19,0.10
2013-6-11,84,77,70,73,70,68,93,81,60,29.85,29.76,8,2,19,0.16
2013-6-12,90,78,65,77,70,63,96,78,54,29.87,29.76,6,1,13,0.00
2013-6-13,92,78,70,78,72,64,95,84,57,29.79,29.49,16,3,28,0.27
2013-6-14,76,68,60,64,59,55,93,74,51,29.94,29.58,16,6,23,0.00
2013-6-15,84,71,58,69,62,57,96,75,47,30.06,29.95,9,1,11,0.00
2013-6-16,87,76,64,74,68,62,96,77,57,30.02,29.89,10,3,14,0.00
2013-6-17,83,76,72,73,71,68,93,85,69,29.97,29.88,7,2,12,0.01
2013-6-18,78,72,66,74,70,64,95,92,87,29.92,29.69,19,3,22,0.76
2013-6-19,74,68,63,68,65,61,97,90,78,30.14,29.82,5,1,8,0.03
2013-6-20,76,67,57,64,57,52,97,73,44,30.26,30.14,9,2,11,0.00
2013-6-21,78,68,52,68,62,51,96,83,66,30.27,30.22,9,1,11,0.00
2013-6-22,83,73,62,68,64,60,96,75,51,30.23,30.15,12,2,15,0.00
2013-6-23,86,77,69,76,72,66,95,85,68,30.18,30.07,12,3,15,0.64
2013-6-24,89,80,73,77,73,69,93,80,62,30.13,30.01,10,2,15,0.00
2013-6-25,91,82,75,77,74,70,93,79,53,30.04,29.89,7,2,10,0.00
2013-6-26,92,80,72,78,74,69,94,82,59,29.92,29.80,7,2,40,0.49
2013-6-27,87,77,70,75,72,69,95,85,64,29.84,29.63,13,4,20,0.01
2013-6-28,89,80,74,77,73,69,94,81,60,29.64,29.49,12,4,20,0.00
2013-6-29,86,78,71,75,72,69,93,82,60,29.70,29.53,8,3,14,0.02
2013-6-30,84,79,76,76,74,73,92,84,76,29.85,29.70,11,5,17,0.00
2013-7-1,79,76,72,77,74,71,96,92,87,30.01,29.85,8,3,19,1.47
2013-7-2,86,76,72,76,73,70,97,89,70,30.19,30.01,9,3,17,0.67
2013-7-3,86,78,74,78,75,72,96,88,71,30.24,30.16,9,3,16,0.00
2013-7-4,88,80,75,76,74,73,94,83,63,30.28,30.17,11,4,13,0.00
2013-7-5,88,81,73,76,74,71,95,80,59,30.25,30.12,10,3,12,0.00
2013-7-6,89,81,76,78,75,72,91,81,62,30.20,30.08,10,3,13,0.00
2013-7-7,89,82,75,78,75,72,92,79,64,30.12,29.99,12,3,17,0.00
2013-7-8,86,79,75,77,74,72,93,86,67,30.11,30.04,9,2,12,0.02
2013-7-9,89,80,74,79,75,72,95,84,67,30.10,30.00,7,2,12,0.01
2013-7-10,88,81,75,80,76,73,95,85,71,29.99,29.88,9,2,13,0.19
2013-7-11,80,76,74,75,73,72,96,91,83,29.93,29.86,8,2,12,0.06
2013-7-12,78,74,71,73,72,70,96,93,84,30.00,29.86,8,2,11,0.38
2013-7-13,85,77,68,78,73,67,97,89,74,30.24,30.00,9,2,14,0.01
2013-7-14,87,80,73,77,74,72,97,83,63,30.31,30.25,7,1,10,0.00
2013-7-15,92,80,70,82,74,69,97,85,61,30.30,30.17,4,1,10,0.00
2013-7-16,91,83,75,79,75,72,97,79,54,30.19,30.12,8,2,14,0.00
2013-7-17,94,82,72,78,74,71,97,77,49,30.17,30.07,5,1,8,0.00
2013-7-18,94,84,73,80,76,71,97,79,50,30.11,29.99,7,1,8,0.00
2013-7-19,93,86,75,81,78,74,95,78,62,30.02,29.89,10,3,17,0.00
2013-7-20,92,88,83,80,78,76,80,72,64,29.90,29.82,12,4,15,0.00
2013-7-21,89,83,76,80,76,73,92,81,67,29.93,29.84,13,2,24,0.17
2013-7-23,89,83,75,78,75,73,94,77,62,29.70,29.62,5,1,10,0.00
2013-7-24,86,79,71,77,73,69,97,82,62,29.83,29.65,11,2,14,0.00
2013-7-25,78,73,67,73,68,64,94,82,78,29.99,29.82,14,4,17,0.00
2013-7-26,82,72,62,70,66,61,96,82,62,30.07,29.98,8,1,11,0.00
2013-7-27,84,74,67,71,68,65,97,81,61,30.05,29.93,8,2,13,0.00
2013-7-28,86,78,69,75,71,65,96,81,65,29.97,29.86,12,3,22,0.57
2013-7-29,82,74,66,72,67,60,96,80,52,30.13,29.95,10,2,15,0.00
2013-7-30,81,72,62,67,64,60,97,78,55,30.20,30.12,7,1,10,0.00
2013-7-31,81,72,63,72,67,62,97,84,60,30.14,30.02,11,2,13,0.00
2013-8-1,80,74,70,74,72,69,96,92,81,30.02,29.81,9,2,14,0.07
2013-8-2,86,76,69,75,69,64,96,80,51,29.95,29.84,7,1,11,0.01
2013-8-3,86,76,67,73,70,66,97,84,60,29.95,29.88,8,1,8,0.00
2013-8-4,81,74,63,69,63,57,95,73,46,30.01,29.86,14,4,22,0.00
2013-8-5,79,68,60,66,61,58,96,80,55,30.07,29.99,5,1,8,0.00
2013-8-6,72,69,65,68,66,64,96,92,86,30.07,30.00,12,3,18,0.58
2013-8-7,85,76,69,74,71,68,96,83,62,30.07,30.01,10,2,15,0.01
2013-8-8,87,79,74,77,74,71,92,83,63,30.05,29.98,9,3,14,0.00
2013-8-9,91,83,77,80,77,74,93,81,66,29.99,29.85,11,4,17,0.00
2013-8-10,86,79,72,77,74,71,96,85,64,30.07,29.93,6,1,12,0.02
2013-8-11,83,76,70,74,72,67,97,86,60,30.09,29.99,4,1,6,0.00
2013-8-12,86,78,72,77,74,71,97,87,70,30.00,29.90,7,1,9,0.00
2013-8-13,86,79,74,76,74,71,97,85,64,29.90,29.73,8,2,13,0.00
2013-8-14,75,69,59,73,59,50,95,72,53,30.08,29.75,16,6,21,0.01
2013-8-15,75,66,58,63,59,56,95,81,57,30.14,30.06,4,1,9,0.00
2013-8-16,76,67,54,65,59,53,97,79,53,30.17,30.10,5,1,8,0.00
2013-8-17,77,71,63,69,65,61,94,83,63,30.22,30.14,8,1,12,0.04
2013-8-18,70,68,67,68,67,66,96,95,93,30.18,30.11,10,3,16,0.29
2013-8-19,73,69,65,70,67,64,97,95,88,30.17,30.07,5,1,9,0.07
2013-8-20,84,74,68,73,70,67,97,87,67,30.16,30.07,6,1,8,0.00
2013-8-21,85,76,67,77,72,66,98,87,68,30.19,30.07,7,2,10,0.01
2013-8-22,88,78,71,77,73,69,97,84,58,30.10,29.92,8,1,11,0.02
2013-8-23,81,73,64,74,70,62,97,91,74,30.08,29.90,9,1,12,0.15
2013-8-24,81,71,62,70,64,60,97,81,51,30.30,30.07,8,1,13,0.00
2013-8-25,77,68,58,65,60,54,97,78,47,30.39,30.28,6,1,10,0.00
2013-8-26,83,69,54,67,61,53,97,78,53,30.30,30.03,8,1,13,0.00
2013-8-27,88,77,68,77,68,61,93,75,60,30.03,29.87,7,1,12,0.00
2013-8-28,84,77,73,75,73,71,95,87,70,29.91,29.82,6,1,9,0.08
2013-8-29,84,75,67,74,71,66,97,87,68,30.00,29.78,8,2,13,0.00
2013-8-30,83,72,63,72,68,62,97,86,67,30.04,29.91,7,2,11,0.01
2013-8-31,87,78,71,74,71,69,93,79,62,29.94,29.82,16,4,20,0.00
2013-9-1,90,80,73,79,74,71,94,82,62,29.85,29.75,7,2,14,0.00
2013-9-2,88,78,73,76,73,71,95,85,67,29.81,29.73,7,2,11,0.00
2013-9-3,84,77,68,74,71,66,96,82,59,29.91,29.73,9,2,15,0.00
2013-9-4,82,72,63,68,62,58,95,71,52,30.06,29.91,10,3,11,0.00
2013-9-5,86,73,61,70,64,59,97,76,42,30.07,29.97,9,1,13,0.00
2013-9-6,76,70,61,63,60,55,93,72,54,30.20,30.07,8,2,13,0.00
2013-9-7,80,67,55,64,60,54,97,80,55,30.12,29.94,8,1,9,0.00
2013-9-8,86,74,62,71,66,60,95,77,47,29.98,29.84,7,1,10,0.00
2013-9-9,79,74,68,71,67,61,95,81,72,30.15,29.98,5,1,9,0.00
2013-9-10,90,79,68,75,72,67,97,80,59,30.18,30.09,11,3,15,0.00
2013-9-11,91,80,71,74,72,68,94,77,54,30.15,30.03,9,2,13,0.00
2013-9-12,90,79,71,75,72,69,96,79,58,30.02,29.72,10,3,17,0.67
2013-9-13,77,72,64,71,64,55,97,78,50,29.87,29.68,11,4,27,0.00
2013-9-14,69,62,52,58,53,50,93,72,52,30.14,29.87,12,4,15,0.00
2013-9-15,75,62,48,62,54,47,97,76,50,30.23,30.10,8,1,10,0.00
2013-9-16,76,68,59,67,63,57,95,84,69,30.18,30.06,12,3,17,0.00
2013-9-17,66,60,51,57,54,49,97,83,58,30.37,30.18,13,2,17,0.00
2013-9-18,69,57,45,57,52,44,97,83,59,30.32,30.18,8,1,8,0.00
2013-9-19,74,61,48,59,54,47,97,79,52,30.19,30.09,7,1,11,0.00
2013-9-20,77,64,52,62,58,51,96,81,58,30.09,29.96,8,1,12,0.00
2013-9-21,80,68,56,68,62,55,97,84,58,29.98,29.71,14,3,18,0.41
2013-9-22,72,66,57,66,61,55,96,84,56,29.89,29.70,11,3,16,0.21
2013-9-23,64,57,48,55,51,46,95,82,59,30.06,29.90,11,2,17,0.01
2013-9-24,71,57,45,59,50,44,97,82,56,30.08,29.93,9,1,14,0.00
2013-9-25,74,60,47,61,54,46,97,82,52,29.95,29.86,4,0,9,0.01
2013-9-26,73,64,57,62,58,55,96,83,59,30.05,29.87,8,1,12,0.00
2013-9-27,71,62,54,60,56,53,97,82,57,30.20,30.04,8,2,14,0.00
2013-9-28,70,61,53,61,57,52,97,86,67,30.25,30.17,7,1,15,0.00
2013-9-29,72,62,53,63,57,52,97,85,58,30.17,30.03,10,2,12,0.00
2013-9-30,72,60,48,60,54,47,97,82,53,30.07,29.97,6,1,10,0.00
2013-10-1,80,65,50,67,58,49,97,81,50,30.07,29.96,6,1,10,0.00
2013-10-2,83,68,56,66,61,55,97,80,48,30.07,29.99,8,1,11,0.00
2013-10-3,84,69,58,70,63,57,97,82,49,30.09,30.03,6,1,9,0.00
2013-10-4,85,72,63,71,66,61,97,83,50,30.07,30.00,5,1,9,0.00
2013-10-5,87,73,62,71,66,61,97,81,51,30.07,29.99,6,0,8,0.00
2013-10-6,86,74,64,70,68,63,97,80,54,30.04,29.95,12,3,17,0.00
2013-10-7,83,72,62,72,68,56,96,86,65,30.00,29.80,16,5,26,0.54
2013-10-8,63,61,56,55,53,49,90,75,63,30.22,30.01,13,4,17,0.01
2013-10-9,63,61,59,59,57,53,95,87,74,30.21,30.07,15,5,22,0.83
2013-10-10,64,62,60,63,61,59,96,96,95,30.05,29.87,14,8,20,0.39
2013-10-11,67,65,61,66,64,60,97,96,95,29.90,29.82,10,5,14,0.16
2013-10-12,68,66,64,67,65,63,98,96,95,30.07,29.89,11,3,15,0.11
2013-10-13,67,65,63,66,64,61,98,94,91,30.25,30.05,10,2,14,0.13
2013-10-14,68,63,55,62,60,54,96,89,76,30.27,30.18,12,3,15,0.00
2013-10-15,65,62,53,62,59,53,97,91,84,30.20,30.05,8,2,12,0.01
2013-10-16,71,65,62,65,62,60,97,91,77,30.05,29.92,4,1,7,0.00
2013-10-17,76,68,61,67,64,60,97,87,71,29.92,29.77,8,2,12,0.00
2013-10-18,70,62,51,65,52,43,95,72,43,30.01,29.79,9,3,18,0.00
2013-10-19,65,59,50,63,57,49,96,94,88,29.99,29.79,6,1,10,0.03
2013-10-20,63,54,43,61,46,38,95,75,43,30.11,29.84,10,2,17,0.00
2013-10-21,65,51,38,50,45,37,97,82,43,30.17,29.99,8,1,13,0.01
2013-10-22,68,57,49,60,53,48,96,87,67,29.98,29.79,6,0,7,0.00
2013-10-23,58,54,48,55,47,40,96,78,63,29.91,29.63,11,3,14,0.00
2013-10-24,53,46,36,43,38,33,96,76,48,30.13,29.91,11,2,15,0.00
2013-10-25,54,42,32,39,34,31,96,77,42,30.32,30.13,10,2,19,0.00
2013-10-26,59,45,30,42,33,29,97,69,36,30.32,29.98,15,3,21,0.00
2013-10-27,62,50,38,46,40,36,94,72,42,30.13,29.96,8,1,12,0.00
2013-10-28,66,50,37,56,46,35,97,86,61,30.25,30.12,4,0,6,0.00
2013-10-29,65,53,43,52,47,42,97,82,52,30.34,30.25,5,0,8,0.00
2013-10-30,71,58,47,59,54,46,97,87,65,30.31,30.14,7,0,12,0.00
2013-10-31,71,63,51,65,59,50,97,86,73,30.18,29.87,11,3,14,0.00
2013-11-1,74,70,68,67,65,64,94,84,74,29.87,29.62,17,6,25,0.01
2013-11-2,70,64,57,66,54,43,96,73,46,29.87,29.61,22,2,22,0.00
2013-11-3,57,50,37,45,40,36,95,71,47,30.39,29.88,18,4,22,0.00
2013-11-4,49,42,36,38,35,30,95,76,58,30.58,30.39,11,2,14,0.00
2013-11-5,61,50,40,50,46,37,94,86,66,30.56,30.45,5,1,9,0.00
2013-11-6,67,57,46,57,52,45,97,84,62,30.45,30.10,11,2,15,0.00
2013-11-7,66,61,55,63,59,53,97,92,80,30.09,29.83,16,2,22,0.23